Time;durP1;ratioP1;P1;durP2;ratioP2;P2;SDS_P1;SDS_P2;PMS_P1;PMS_P2;Temp;Humidity;BMP_temperature;BMP_pressure;BME280_temperature;BME280_humidity;BME280_pressure;Samples;Min_cycle;Max_cycle;Signal;HPM_P1;HPM_P2
2021/04/17 00:02:23;;;;;;;1.63;1.43;;;3.80;98.00;;;;;;5068727;28;20460;-72
2021/04/17 00:04:50;;;;;;;1.20;1.00;;;3.80;98.00;;;;;;5071243;28;20460;-72
2021/04/17 00:07:17;;;;;;;1.30;1.10;;;3.80;98.00;;;;;;5068903;28;20950;-72
2021/04/17 00:09:44;;;;;;;1.20;1.10;;;3.80;98.00;;;;;;5071830;28;20928;-72
2021/04/17 00:12:15;;;;;;;1.60;1.30;;;3.80;98.00;;;;;;5071094;28;20962;-72
2021/04/17 00:14:43;;;;;;;1.20;1.20;;;3.80;98.00;;;;;;5071614;28;20487;-72
2021/04/17 00:17:10;;;;;;;1.20;0.93;;;3.80;98.00;;;;;;5070297;28;20525;-72
2021/04/17 00:19:38;;;;;;;2.40;1.30;;;3.70;98.00;;;;;;5069467;28;20505;-72
2021/04/17 00:22:05;;;;;;;1.30;1.10;;;3.70;98.00;;;;;;5070179;28;20460;-72
2021/04/17 00:24:31;;;;;;;2.23;1.40;;;3.70;98.00;;;;;;5068891;28;20456;-75
2021/04/17 00:26:58;;;;;;;1.20;1.00;;;3.60;98.00;;;;;;5071363;28;20452;-74
2021/04/17 00:29:25;;;;;;;1.20;1.07;;;3.60;98.00;;;;;;5068758;28;20488;-72
2021/04/17 00:31:52;;;;;;;1.20;1.10;;;3.60;98.00;;;;;;5071378;28;20461;-72
2021/04/17 00:34:20;;;;;;;1.30;1.20;;;3.60;98.00;;;;;;5068348;28;20477;-72
2021/04/17 00:36:46;;;;;;;2.57;1.43;;;3.60;98.00;;;;;;5070805;28;20491;-72
2021/04/17 00:39:13;;;;;;;1.20;1.10;;;3.60;98.00;;;;;;5068497;28;20481;-72
2021/04/17 00:41:39;;;;;;;1.80;1.23;;;3.70;98.00;;;;;;5071039;28;20471;-72
2021/04/17 00:44:06;;;;;;;1.40;1.30;;;3.70;98.00;;;;;;5068231;28;20958;-72
2021/04/17 00:46:33;;;;;;;1.20;1.00;;;3.70;98.00;;;;;;5070989;28;20441;-72
2021/04/17 00:49:02;;;;;;;1.30;1.10;;;3.80;98.00;;;;;;5068097;28;20453;-72
2021/04/17 00:51:29;;;;;;;3.63;1.73;;;3.70;98.00;;;;;;5070873;28;20842;-72
2021/04/17 00:53:56;;;;;;;1.20;1.03;;;3.70;98.00;;;;;;5067824;28;20484;-72
2021/04/17 00:56:22;;;;;;;1.60;1.20;;;3.70;98.00;;;;;;5069329;28;20456;-72
2021/04/17 00:58:49;;;;;;;1.50;1.40;;;3.70;98.00;;;;;;5067608;28;20896;-72
2021/04/17 01:01:17;;;;;;;1.40;1.30;;;3.70;98.00;;;;;;5052577;28;20606;-72
2021/04/17 01:03:54;;;;;;;3.90;2.23;;;3.80;98.00;;;;;;5068142;28;21025;-72
2021/04/17 01:06:24;;;;;;;1.30;1.20;;;3.90;98.00;;;;;;5070832;28;20531;-72
2021/04/17 01:08:58;;;;;;;1.47;1.40;;;4.10;98.00;;;;;;5068185;28;20457;-72
2021/04/17 01:11:38;;;;;;;1.20;1.00;;;4.40;98.00;;;;;;5070900;28;20518;-72
2021/04/17 01:14:06;;;;;;;2.00;1.70;;;4.50;98.00;;;;;;5068328;28;20859;-72
2021/04/17 01:16:34;;;;;;;1.30;1.17;;;4.60;98.00;;;;;;5070887;28;20448;-72
2021/04/17 01:19:04;;;;;;;1.20;1.10;;;4.60;98.00;;;;;;5068577;28;20489;-72
2021/04/17 01:21:33;;;;;;;1.20;1.00;;;4.50;98.00;;;;;;5069646;28;20785;-72
2021/04/17 01:24:03;;;;;;;1.20;1.00;;;4.50;98.00;;;;;;5072003;28;20514;-72
2021/04/17 01:26:31;;;;;;;1.20;1.00;;;4.60;98.00;;;;;;5074410;28;20457;-72
2021/04/17 01:28:59;;;;;;;1.27;1.17;;;4.30;98.00;;;;;;5071665;28;20899;-72
2021/04/17 01:31:29;;;;;;;1.50;1.50;;;4.10;98.00;;;;;;5074042;28;20967;-72
2021/04/17 01:33:58;;;;;;;1.20;0.90;;;3.90;98.00;;;;;;5070935;28;20481;-72
2021/04/17 01:36:27;;;;;;;1.20;0.90;;;3.80;98.00;;;;;;5074147;28;20463;-72
2021/04/17 01:38:57;;;;;;;1.57;1.20;;;3.70;98.00;;;;;;5071431;28;20961;-72
2021/04/17 01:41:28;;;;;;;1.43;1.40;;;3.70;98.00;;;;;;5074248;28;20791;-72
2021/04/17 01:44:00;;;;;;;2.60;2.00;;;3.70;98.00;;;;;;5071499;28;20964;-72
2021/04/17 01:46:30;;;;;;;1.20;1.00;;;3.60;98.00;;;;;;5073563;28;20817;-72
2021/04/17 01:48:59;;;;;;;1.20;1.00;;;3.60;98.00;;;;;;5071497;28;20458;-72
2021/04/17 01:51:27;;;;;;;1.40;1.30;;;3.50;98.00;;;;;;5073698;28;21092;-72
2021/04/17 01:53:55;;;;;;;2.70;1.97;;;3.40;98.00;;;;;;5070934;28;20481;-72
2021/04/17 01:56:23;;;;;;;1.20;1.10;;;3.40;98.00;;;;;;5072247;28;20453;-72
2021/04/17 01:58:51;;;;;;;1.40;1.30;;;3.40;98.00;;;;;;5071279;28;20972;-72
2021/04/17 02:01:19;;;;;;;1.30;1.10;;;3.40;98.00;;;;;;5073472;28;20812;-72
2021/04/17 02:03:47;;;;;;;1.20;1.10;;;3.40;98.00;;;;;;5070962;28;20463;-72
2021/04/17 02:06:14;;;;;;;1.40;1.30;;;3.30;98.00;;;;;;5073323;28;20457;-72
2021/04/17 02:08:40;;;;;;;1.50;1.30;;;3.30;98.00;;;;;;5070924;28;20483;-72
2021/04/17 02:11:07;;;;;;;1.20;1.00;;;3.30;98.00;;;;;;5073382;28;20445;-72
2021/04/17 02:13:35;;;;;;;3.00;1.63;;;3.30;98.00;;;;;;5069760;28;20492;-72
2021/04/17 02:16:08;;;;;;;1.20;0.90;;;3.40;98.00;;;;;;5073489;28;20862;-73
2021/04/17 02:18:44;;;;;;;1.20;1.00;;;3.50;98.00;;;;;;5070853;28;20457;-72
2021/04/17 02:21:13;;;;;;;1.40;1.23;;;3.50;98.00;;;;;;5073529;28;20830;-72
2021/04/17 02:23:40;;;;;;;1.20;0.97;;;3.70;98.00;;;;;;5070623;28;20833;-72
2021/04/17 02:26:07;;;;;;;1.40;1.30;;;3.80;98.00;;;;;;5073261;28;20459;-72
2021/04/17 02:28:34;;;;;;;1.20;1.00;;;3.90;98.00;;;;;;5070917;28;20463;-72
2021/04/17 02:31:03;;;;;;;1.20;1.10;;;3.80;98.00;;;;;;5071905;28;20855;-72
2021/04/17 02:33:30;;;;;;;1.37;1.17;;;3.80;98.00;;;;;;5070164;28;21102;-72
2021/04/17 02:35:58;;;;;;;1.20;1.10;;;3.70;98.00;;;;;;5073031;28;20923;-72
2021/04/17 02:38:24;;;;;;;1.57;1.53;;;3.80;98.00;;;;;;5070928;28;20454;-72
2021/04/17 02:40:51;;;;;;;1.50;1.40;;;3.90;98.00;;;;;;5072804;28;20458;-72
2021/04/17 02:43:18;;;;;;;4.20;1.50;;;3.90;98.00;;;;;;5070373;28;20490;-72
2021/04/17 02:45:44;;;;;;;1.20;1.00;;;4.00;98.00;;;;;;5072588;28;20461;-72
2021/04/17 02:48:11;;;;;;;1.30;1.10;;;4.10;98.00;;;;;;5070323;28;20467;-72
2021/04/17 02:50:40;;;;;;;1.20;1.00;;;3.90;98.00;;;;;;5072499;28;20860;-72
2021/04/17 02:53:07;;;;;;;1.20;0.97;;;4.10;98.00;;;;;;5069865;28;20461;-72
2021/04/17 02:55:34;;;;;;;2.27;1.73;;;4.00;98.00;;;;;;5072405;28;20485;-72
2021/04/17 02:58:00;;;;;;;1.20;1.10;;;4.00;98.00;;;;;;5068303;28;20461;-72
2021/04/17 03:00:29;;;;;;;1.77;1.20;;;3.80;98.00;;;;;;5072071;28;20457;-72
2021/04/17 03:02:56;;;;;;;1.93;1.57;;;3.60;98.00;;;;;;5069235;28;20612;-72
2021/04/17 03:05:23;;;;;;;1.20;1.00;;;3.40;98.00;;;;;;5072307;28;20472;-72
2021/04/17 03:07:49;;;;;;;2.30;1.30;;;3.40;98.00;;;;;;5069688;28;20468;-72
2021/04/17 03:10:18;;;;;;;1.40;1.13;;;3.40;98.00;;;;;;5072293;28;20461;-72
2021/04/17 03:12:45;;;;;;;1.30;1.20;;;3.40;98.00;;;;;;5069221;28;20460;-72
2021/04/17 03:15:13;;;;;;;1.53;1.40;;;3.50;98.00;;;;;;5071653;28;20511;-72
2021/04/17 03:17:40;;;;;;;1.93;1.23;;;3.60;98.00;;;;;;5069342;28;20454;-72
2021/04/17 03:20:09;;;;;;;1.20;1.10;;;3.70;98.00;;;;;;5072241;28;20581;-72
2021/04/17 03:22:37;;;;;;;1.20;1.00;;;3.60;98.00;;;;;;5068680;28;20450;-72
2021/04/17 03:25:06;;;;;;;1.40;1.17;;;3.60;98.00;;;;;;5072102;28;20454;-72
2021/04/17 03:27:34;;;;;;;1.20;1.03;;;3.70;98.00;;;;;;5070336;28;20503;-72
2021/04/17 03:30:01;;;;;;;2.50;1.47;;;3.60;98.00;;;;;;5072084;28;20454;-72
2021/04/17 03:32:28;;;;;;;1.20;1.00;;;3.60;98.00;;;;;;5071853;28;20475;-72
2021/04/17 03:34:54;;;;;;;1.20;1.00;;;3.70;98.00;;;;;;5070455;28;20488;-72
2021/04/17 03:37:21;;;;;;;1.60;1.50;;;3.80;98.00;;;;;;5071874;28;20811;-72
2021/04/17 03:39:47;;;;;;;2.13;1.40;;;3.80;98.00;;;;;;5068875;28;20859;-72
2021/04/17 03:42:14;;;;;;;1.20;1.00;;;3.70;98.00;;;;;;5071831;28;20453;-72
2021/04/17 03:44:41;;;;;;;1.53;1.27;;;3.80;98.00;;;;;;5068495;28;20476;-72
2021/04/17 03:47:08;;;;;;;1.50;1.23;;;3.80;98.00;;;;;;5070994;28;20871;-72
2021/04/17 03:49:34;;;;;;;2.43;1.67;;;3.90;98.00;;;;;;5068634;28;20963;-72
2021/04/17 03:52:01;;;;;;;1.20;1.00;;;4.00;98.00;;;;;;5071693;28;20487;-72
2021/04/17 03:54:28;;;;;;;1.20;1.07;;;4.00;98.00;;;;;;5069518;28;20484;-72
2021/04/17 03:56:55;;;;;;;2.80;1.30;;;4.00;98.00;;;;;;5071338;28;20548;-72
2021/04/17 03:59:21;;;;;;;2.30;2.10;;;4.10;98.00;;;;;;5068211;28;20987;-72
2021/04/17 04:01:49;;;;;;;1.40;1.20;;;4.00;98.00;;;;;;5070777;28;20459;-72
2021/04/17 04:04:16;;;;;;;2.50;1.47;;;4.00;98.00;;;;;;5067628;28;20461;-73
2021/04/17 04:06:43;;;;;;;1.20;1.07;;;3.90;98.00;;;;;;5070873;28;20531;-72
2021/04/17 04:09:09;;;;;;;1.20;1.00;;;3.80;98.00;;;;;;5068470;28;20457;-72
2021/04/17 04:11:36;;;;;;;1.20;1.00;;;4.00;98.00;;;;;;5071493;28;20469;-73
2021/04/17 04:14:03;;;;;;;2.67;1.13;;;4.00;98.00;;;;;;5069187;28;20489;-73
2021/04/17 04:16:29;;;;;;;1.90;1.60;;;3.90;98.00;;;;;;5071527;28;20460;-72
2021/04/17 04:18:57;;;;;;;2.27;1.43;;;3.80;98.00;;;;;;5068507;28;20489;-73
2021/04/17 04:21:23;;;;;;;2.13;1.40;;;3.60;98.00;;;;;;5071372;28;20453;-73
2021/04/17 04:23:50;;;;;;;1.67;1.30;;;3.50;98.00;;;;;;5068350;28;20962;-72
2021/04/17 04:26:16;;;;;;;1.93;1.37;;;3.40;98.00;;;;;;5071272;28;20464;-72
2021/04/17 04:28:43;;;;;;;1.50;1.30;;;3.40;98.00;;;;;;5068234;28;20810;-73
2021/04/17 04:31:10;;;;;;;1.37;1.00;;;3.60;98.00;;;;;;5070224;28;20449;-72
2021/04/17 04:33:38;;;;;;;1.60;1.27;;;3.60;98.00;;;;;;5067613;28;20461;-73
2021/04/17 04:36:06;;;;;;;1.87;1.47;;;3.70;98.00;;;;;;5071231;28;20514;-72
2021/04/17 04:38:34;;;;;;;2.10;1.70;;;3.80;98.00;;;;;;5067952;28;20452;-72
2021/04/17 04:41:00;;;;;;;1.37;1.10;;;4.00;98.00;;;;;;5070971;28;20872;-72
2021/04/17 04:43:27;;;;;;;1.77;1.27;;;4.00;98.00;;;;;;5068188;28;20453;-72
2021/04/17 04:45:53;;;;;;;1.30;1.20;;;4.00;98.00;;;;;;5070586;28;20456;-72
2021/04/17 04:48:20;;;;;;;1.70;1.30;;;4.00;98.00;;;;;;5067595;28;20826;-73
2021/04/17 04:50:47;;;;;;;4.57;2.00;;;4.10;98.00;;;;;;5070986;28;20495;-73
2021/04/17 04:53:14;;;;;;;1.20;1.07;;;4.10;98.00;;;;;;5068244;28;20540;-72
2021/04/17 04:55:41;;;;;;;1.37;1.37;;;4.10;98.00;;;;;;5071267;28;20480;-72
2021/04/17 04:58:07;;;;;;;2.03;1.20;;;4.00;98.00;;;;;;5071183;28;20980;-73
2021/04/17 05:00:34;;;;;;;1.20;1.00;;;4.00;98.00;;;;;;5075257;28;20458;-73
2021/04/17 05:03:00;;;;;;;1.47;1.30;;;4.10;98.00;;;;;;5071412;28;20463;-72
2021/04/17 05:05:26;;;;;;;1.30;1.20;;;4.10;98.00;;;;;;5074351;28;20838;-72
2021/04/17 05:07:54;;;;;;;1.20;0.97;;;4.20;98.00;;;;;;5071847;28;20481;-73
2021/04/17 05:10:21;;;;;;;1.20;1.00;;;4.30;98.00;;;;;;5074605;28;20962;-72
2021/04/17 05:12:48;;;;;;;3.53;2.17;;;4.30;98.00;;;;;;5071857;28;20997;-72
2021/04/17 05:15:14;;;;;;;2.80;1.63;;;4.30;98.00;;;;;;5074360;28;20481;-72
2021/04/17 05:17:41;;;;;;;1.70;1.57;;;4.30;98.00;;;;;;5074492;28;20461;-72
2021/04/17 05:20:08;;;;;;;2.13;1.50;;;4.30;98.00;;;;;;5072043;28;20904;-72
2021/04/17 05:22:35;;;;;;;1.70;1.40;;;4.30;98.00;;;;;;5074211;28;20886;-72
2021/04/17 05:25:01;;;;;;;2.03;1.77;;;4.40;98.00;;;;;;5071479;28;20449;-72
2021/04/17 05:27:29;;;;;;;1.30;1.10;;;4.50;98.00;;;;;;5074299;28;20488;-72
2021/04/17 05:29:55;;;;;;;1.60;1.50;;;4.50;98.00;;;;;;5071409;28;20508;-72
2021/04/17 05:32:22;;;;;;;1.87;1.17;;;4.50;98.00;;;;;;5074105;28;20510;-72
2021/04/17 05:34:48;;;;;;;1.20;1.13;;;4.60;98.00;;;;;;5071288;28;20482;-72
2021/04/17 05:37:15;;;;;;;2.37;1.83;;;4.60;98.00;;;;;;5073718;28;20562;-72
2021/04/17 05:39:41;;;;;;;1.20;1.10;;;4.70;98.00;;;;;;5070924;28;20457;-72
2021/04/17 05:42:08;;;;;;;1.20;1.10;;;4.70;98.00;;;;;;5074112;28;20451;-73
2021/04/17 05:44:36;;;;;;;1.30;1.20;;;4.80;98.00;;;;;;5071541;28;20807;-72
2021/04/17 05:47:02;;;;;;;1.20;1.20;;;4.80;98.00;;;;;;5074358;28;20873;-72
2021/04/17 05:49:29;;;;;;;1.70;1.10;;;4.70;98.00;;;;;;5071423;28;20531;-72
2021/04/17 05:51:55;;;;;;;2.90;2.07;;;4.70;98.00;;;;;;5074169;28;20494;-72
2021/04/17 05:54:22;;;;;;;1.60;1.20;;;4.60;98.00;;;;;;5071312;28;20521;-72
2021/04/17 05:56:49;;;;;;;1.30;1.03;;;4.80;98.00;;;;;;5074050;28;20495;-72
2021/04/17 05:59:15;;;;;;;1.50;1.30;;;4.80;98.00;;;;;;5070979;28;20541;-72
2021/04/17 06:01:43;;;;;;;1.60;1.17;;;4.80;98.00;;;;;;5073699;28;20454;-73
2021/04/17 06:04:10;;;;;;;1.20;1.10;;;4.80;98.00;;;;;;5071201;28;20485;-72
2021/04/17 06:06:37;;;;;;;1.67;1.40;;;4.70;98.00;;;;;;5073660;28;20523;-72
2021/04/17 06:09:03;;;;;;;1.20;0.90;;;4.90;98.00;;;;;;5069956;28;20486;-72
2021/04/17 06:11:30;;;;;;;1.50;1.37;;;5.00;98.00;;;;;;5073646;28;20454;-72
2021/04/17 06:13:56;;;;;;;1.37;1.30;;;5.10;98.00;;;;;;5069276;28;20487;-72
2021/04/17 06:16:24;;;;;;;1.50;1.10;;;5.30;98.00;;;;;;5072160;28;20899;-72
2021/04/17 06:18:52;;;;;;;4.07;2.37;;;5.30;98.00;;;;;;5070668;28;20467;-73
2021/04/17 06:21:18;;;;;;;2.83;1.90;;;5.40;98.00;;;;;;5073280;28;20458;-73
2021/04/17 06:23:45;;;;;;;1.20;1.00;;;5.40;98.00;;;;;;5070674;28;20454;-73
2021/04/17 06:26:11;;;;;;;1.53;1.20;;;5.60;98.00;;;;;;5071937;28;20462;-72
2021/04/17 06:28:38;;;;;;;1.80;1.70;;;5.60;98.00;;;;;;5070397;28;20494;-73
2021/04/17 06:31:04;;;;;;;1.57;1.40;;;5.70;98.00;;;;;;5073072;28;20449;-73
2021/04/17 06:33:31;;;;;;;1.20;1.00;;;5.70;98.00;;;;;;5070292;28;20474;-73
2021/04/17 06:35:59;;;;;;;1.40;1.40;;;5.70;98.00;;;;;;5072805;28;20477;-72
2021/04/17 06:38:25;;;;;;;3.20;1.83;;;5.70;98.00;;;;;;5070266;28;20459;-73
2021/04/17 06:40:52;;;;;;;1.50;1.50;;;5.80;98.00;;;;;;5072712;28;20460;-72
2021/04/17 06:43:22;;;;;;;1.60;1.53;;;6.10;98.00;;;;;;5070184;28;20807;-73
2021/04/17 06:45:53;;;;;;;2.17;1.67;;;6.20;98.00;;;;;;5073234;28;20840;-72
2021/04/17 06:48:21;;;;;;;1.50;1.40;;;6.20;98.00;;;;;;5070437;28;20463;-72
2021/04/17 06:50:49;;;;;;;1.90;1.90;;;6.10;98.00;;;;;;5072751;28;20603;-72
2021/04/17 06:53:19;;;;;;;1.40;1.40;;;6.30;98.00;;;;;;5069948;28;20459;-73
2021/04/17 06:55:49;;;;;;;1.87;1.30;;;6.30;98.00;;;;;;5072925;28;20484;-72
2021/04/17 06:58:17;;;;;;;1.40;1.33;;;6.50;98.00;;;;;;5069831;28;20581;-72
2021/04/17 07:00:44;;;;;;;3.73;1.97;;;6.70;98.00;;;;;;5072721;28;20941;-72
2021/04/17 07:03:10;;;;;;;7.80;1.97;;;6.80;98.00;;;;;;5069709;28;21044;-72
2021/04/17 07:05:37;;;;;;;1.53;1.43;;;6.80;98.00;;;;;;5072338;28;20463;-72
2021/04/17 07:08:04;;;;;;;1.20;1.03;;;6.90;98.00;;;;;;5068616;28;20451;-72
2021/04/17 07:10:34;;;;;;;1.40;1.30;;;6.90;98.00;;;;;;5072458;28;20460;-72
2021/04/17 07:13:08;;;;;;;1.70;1.40;;;6.80;98.00;;;;;;5069808;28;20951;-73
2021/04/17 07:15:36;;;;;;;1.30;1.27;;;6.80;98.00;;;;;;5072102;28;20516;-73
2021/04/17 07:18:32;;;;;;;1.20;1.10;;;6.80;98.00;;;;;;5069738;28;20455;-74
2021/04/17 07:21:09;;;;;;;1.60;1.40;;;6.80;98.00;;;;;;5071052;28;20465;-72
2021/04/17 07:23:42;;;;;;;1.50;1.40;;;6.70;98.00;;;;;;5068005;28;20503;-72
2021/04/17 07:26:11;;;;;;;2.00;1.80;;;6.60;98.00;;;;;;5071374;28;20488;-71
2021/04/17 07:28:39;;;;;;;1.63;1.53;;;6.60;98.00;;;;;;5068470;28;21250;-71
2021/04/17 07:31:06;;;;;;;22.53;2.13;;;6.70;98.00;;;;;;5071204;28;20477;-72
2021/04/17 07:33:33;;;;;;;1.77;1.47;;;6.90;98.00;;;;;;5068931;28;20463;-69
2021/04/17 07:36:00;;;;;;;2.37;1.70;;;7.10;98.00;;;;;;5071176;28;20516;-71
2021/04/17 07:38:33;;;;;;;1.20;1.10;;;7.30;98.00;;;;;;5068503;28;20449;-70
2021/04/17 07:41:07;;;;;;;1.63;1.33;;;7.40;98.00;;;;;;5071158;28;20466;-67
2021/04/17 07:43:53;;;;;;;2.30;1.63;;;7.50;98.00;;;;;;5068671;28;20449;-71
2021/04/17 07:46:23;;;;;;;2.23;1.37;;;7.60;98.00;;;;;;5070540;28;21012;-68
2021/04/17 07:48:51;;;;;;;1.60;1.40;;;7.80;98.00;;;;;;5068274;28;20461;-69
2021/04/17 07:51:19;;;;;;;2.00;1.77;;;7.80;98.00;;;;;;5071888;28;20577;-71
2021/04/17 07:53:46;;;;;;;1.40;1.20;;;7.90;98.00;;;;;;5068768;28;20506;-71
2021/04/17 07:56:33;;;;;;;1.40;1.30;;;7.90;98.00;;;;;;5071644;28;20457;-72
2021/04/17 07:59:04;;;;;;;2.13;1.50;;;7.90;97.30;;;;;;5068512;28;20464;-72
2021/04/17 08:01:33;;;;;;;1.40;1.23;;;7.90;97.20;;;;;;5070297;28;21007;-72
2021/04/17 08:04:02;;;;;;;2.50;1.47;;;8.10;97.30;;;;;;5069047;28;20868;-73
2021/04/17 08:06:29;;;;;;;1.40;1.30;;;8.00;96.70;;;;;;5071629;28;20481;-72
2021/04/17 08:08:58;;;;;;;1.30;1.20;;;7.90;97.80;;;;;;5069249;28;20469;-71
2021/04/17 08:11:27;;;;;;;1.47;1.30;;;8.10;96.70;;;;;;5071396;28;20454;-71
2021/04/17 08:13:55;;;;;;;1.50;1.30;;;8.10;96.30;;;;;;5068839;28;20457;-71
2021/04/17 08:16:23;;;;;;;6.30;2.03;;;8.00;96.50;;;;;;5071188;28;20461;-71
2021/04/17 08:18:50;;;;;;;3.50;1.83;;;7.90;97.00;;;;;;5068653;28;20453;-71
2021/04/17 08:21:21;;;;;;;2.30;1.87;;;8.10;97.00;;;;;;5071176;28;20461;-72
2021/04/17 08:23:50;;;;;;;1.50;1.40;;;8.30;96.00;;;;;;5068455;28;20459;-71
2021/04/17 08:26:18;;;;;;;1.83;1.40;;;8.30;96.30;;;;;;5071077;28;21002;-71
2021/04/17 08:28:46;;;;;;;1.83;1.37;;;8.30;95.00;;;;;;5068358;28;20453;-71
2021/04/17 08:31:24;;;;;;;1.93;1.33;;;8.30;94.50;;;;;;5071090;28;20494;-71
2021/04/17 08:34:12;;;;;;;1.80;1.47;;;8.30;94.60;;;;;;5072436;28;20454;-71
2021/04/17 08:36:41;;;;;;;1.20;1.00;;;8.50;94.80;;;;;;5075086;28;20953;-71
2021/04/17 08:39:28;;;;;;;3.30;1.50;;;8.70;93.30;;;;;;5072593;28;20799;-71
2021/04/17 08:41:55;;;;;;;2.03;1.93;;;8.80;92.70;;;;;;5073614;28;20619;-71
2021/04/17 08:44:27;;;;;;;2.13;1.87;;;9.00;93.60;;;;;;5071073;28;20459;-71
2021/04/17 08:46:55;;;;;;;1.60;1.30;;;9.10;92.80;;;;;;5073383;28;20566;-71
2021/04/17 08:49:34;;;;;;;3.33;1.77;;;9.20;94.10;;;;;;5071083;28;20457;-71
2021/04/17 08:52:20;;;;;;;1.77;1.30;;;9.50;90.70;;;;;;5073486;28;20461;-71
2021/04/17 08:55:07;;;;;;;2.13;1.77;;;9.60;90.60;;;;;;5072344;28;20495;-71
2021/04/17 08:57:36;;;;;;;1.30;1.10;;;9.50;91.00;;;;;;5074958;28;20550;-71
2021/04/17 09:00:05;;;;;;;3.80;2.60;;;9.40;91.90;;;;;;5071843;28;20460;-71
2021/04/17 09:02:42;;;;;;;1.50;1.30;;;9.40;91.40;;;;;;5074594;28;20453;-71
2021/04/17 09:05:13;;;;;;;2.10;1.73;;;9.20;91.20;;;;;;5072212;28;20501;-72
2021/04/17 09:07:41;;;;;;;1.73;1.47;;;9.20;90.00;;;;;;5074563;28;20466;-72
2021/04/17 09:10:34;;;;;;;1.50;1.40;;;9.10;91.70;;;;;;5071576;28;20462;-71
2021/04/17 09:13:36;;;;;;;1.80;1.57;;;9.00;93.20;;;;;;5074445;28;20452;-71
2021/04/17 09:16:04;;;;;;;1.60;1.27;;;9.10;91.50;;;;;;5070295;28;20481;-71
2021/04/17 09:18:42;;;;;;;4.37;1.77;;;9.20;90.00;;;;;;5071821;28;20455;-71
2021/04/17 09:21:34;;;;;;;1.20;1.07;;;9.40;90.50;;;;;;5071589;28;20969;-72
2021/04/17 09:24:25;;;;;;;1.73;1.70;;;9.30;89.70;;;;;;5071957;28;20458;-71
2021/04/17 09:26:52;;;;;;;1.33;1.27;;;9.40;90.20;;;;;;5074278;28;20961;-72
2021/04/17 09:29:25;;;;;;;2.47;2.07;;;9.40;90.30;;;;;;5071994;28;20461;-71
2021/04/17 09:31:52;;;;;;;1.30;1.23;;;9.50;89.60;;;;;;5074024;28;20460;-72
2021/04/17 09:34:20;;;;;;;1.50;1.40;;;9.20;89.50;;;;;;5070587;28;21056;-72
2021/04/17 09:36:49;;;;;;;1.20;1.10;;;9.10;89.90;;;;;;5073472;28;20459;-71
2021/04/17 09:39:30;;;;;;;2.27;1.27;;;9.00;90.50;;;;;;5070908;28;20510;-72
2021/04/17 09:41:58;;;;;;;2.53;1.60;;;8.90;91.20;;;;;;5073715;28;20458;-72
2021/04/17 09:44:26;;;;;;;1.87;1.40;;;9.00;91.60;;;;;;5068310;28;20978;-71
2021/04/17 09:47:08;;;;;;;1.53;1.20;;;9.20;91.20;;;;;;5074083;28;20455;-71
2021/04/17 09:49:36;;;;;;;1.20;1.10;;;9.30;91.00;;;;;;5071487;28;20457;-72
2021/04/17 09:52:02;;;;;;;1.47;1.47;;;9.50;90.00;;;;;;5074032;28;20484;-71
2021/04/17 09:54:29;;;;;;;1.57;1.30;;;9.90;89.40;;;;;;5070798;28;20491;-72
2021/04/17 09:56:56;;;;;;;1.40;1.37;;;10.10;87.70;;;;;;5072508;28;20492;-71
2021/04/17 09:59:23;;;;;;;2.03;1.40;;;10.30;86.10;;;;;;5071341;28;20467;-72
2021/04/17 10:01:56;;;;;;;1.40;1.37;;;10.40;85.40;;;;;;5073863;28;20602;-73
2021/04/17 10:04:22;;;;;;;1.90;1.30;;;10.60;85.10;;;;;;5070062;28;20821;-72
2021/04/17 10:06:56;;;;;;;1.20;1.07;;;10.60;84.60;;;;;;5073343;28;20453;-72
2021/04/17 10:09:23;;;;;;;1.53;1.30;;;10.70;85.10;;;;;;5070299;28;20943;-72
2021/04/17 10:11:50;;;;;;;4.80;1.50;;;10.60;83.90;;;;;;5073493;28;20453;-72
2021/04/17 10:14:18;;;;;;;1.70;1.30;;;10.40;83.80;;;;;;5070798;28;20488;-72
2021/04/17 10:16:49;;;;;;;1.53;1.33;;;10.50;86.10;;;;;;5073465;28;20457;-71
2021/04/17 10:19:19;;;;;;;1.50;1.40;;;10.90;84.80;;;;;;5070286;28;20466;-71
2021/04/17 10:21:49;;;;;;;1.20;1.13;;;11.20;83.70;;;;;;5072761;28;20458;-72
2021/04/17 10:24:27;;;;;;;1.70;1.43;;;11.30;82.50;;;;;;5069815;28;20456;-72
2021/04/17 10:27:01;;;;;;;1.63;1.27;;;11.30;82.40;;;;;;5073088;28;20526;-72
2021/04/17 10:29:37;;;;;;;2.60;1.40;;;11.30;82.10;;;;;;5070310;28;20464;-73
2021/04/17 10:32:06;;;;;;;2.07;1.93;;;11.10;82.50;;;;;;5073145;28;20497;-72
2021/04/17 10:34:34;;;;;;;1.30;1.30;;;11.30;83.10;;;;;;5070481;28;20541;-72
2021/04/17 10:37:06;;;;;;;1.43;1.20;;;11.30;81.70;;;;;;5073107;28;20453;-72
2021/04/17 10:39:33;;;;;;;1.30;1.20;;;11.30;81.40;;;;;;5070061;28;20452;-73
2021/04/17 10:42:02;;;;;;;3.43;1.63;;;11.30;81.70;;;;;;5071521;28;20456;-72
2021/04/17 10:44:29;;;;;;;1.20;1.10;;;11.30;82.10;;;;;;5070684;28;20487;-71
2021/04/17 10:46:56;;;;;;;1.67;1.40;;;11.40;82.70;;;;;;5072724;28;20460;-72
2021/04/17 10:49:32;;;;;;;3.00;1.40;;;11.20;80.30;;;;;;5069815;28;20514;-72
2021/04/17 10:52:00;;;;;;;1.50;1.30;;;11.00;81.00;;;;;;5072477;28;20862;-71
2021/04/17 10:54:27;;;;;;;1.50;1.30;;;10.70;83.30;;;;;;5069457;28;20978;-71
2021/04/17 10:56:59;;;;;;;1.63;1.30;;;10.50;83.90;;;;;;5073141;28;20479;-71
2021/04/17 10:59:25;;;;;;;1.20;1.00;;;10.40;83.80;;;;;;5071034;28;21213;-71
2021/04/17 11:01:52;;;;;;;2.07;1.10;;;10.40;84.00;;;;;;5072424;28;20570;-72
2021/04/17 11:04:18;;;;;;;1.40;1.20;;;10.50;83.40;;;;;;5069576;28;20452;-71
2021/04/17 11:06:48;;;;;;;1.53;1.47;;;10.60;83.40;;;;;;5070979;28;20473;-72
2021/04/17 11:09:17;;;;;;;1.20;1.00;;;10.60;82.50;;;;;;5070625;28;20461;-71
2021/04/17 11:11:55;;;;;;;1.20;1.00;;;10.60;84.00;;;;;;5071873;28;20512;-71
2021/04/17 11:14:25;;;;;;;1.73;1.50;;;10.80;83.80;;;;;;5069790;28;20541;-73
2021/04/17 11:16:53;;;;;;;2.30;1.40;;;10.70;82.80;;;;;;5070638;28;20845;-71
2021/04/17 11:19:29;;;;;;;1.30;1.10;;;10.80;83.40;;;;;;5069453;28;20466;-72
2021/04/17 11:22:06;;;;;;;1.40;1.10;;;10.80;82.20;;;;;;5071206;28;21015;-71
2021/04/17 11:24:33;;;;;;;2.27;1.43;;;11.00;81.80;;;;;;5069625;28;20461;-71
2021/04/17 11:27:00;;;;;;;1.50;1.30;;;11.00;81.30;;;;;;5070871;28;20459;-72
2021/04/17 11:29:27;;;;;;;2.47;1.60;;;11.50;81.10;;;;;;5069229;28;20548;-72
2021/04/17 11:31:54;;;;;;;2.13;1.30;;;12.10;79.90;;;;;;5071980;28;20451;-71
2021/04/17 11:34:21;;;;;;;2.37;1.53;;;12.60;80.40;;;;;;5069339;28;20460;-72
2021/04/17 11:36:47;;;;;;;2.27;1.40;;;12.70;79.80;;;;;;5070824;28;20566;-71
2021/04/17 11:39:15;;;;;;;1.27;1.13;;;12.60;79.40;;;;;;5069120;28;20516;-72
2021/04/17 11:41:43;;;;;;;2.07;1.37;;;12.50;77.80;;;;;;5070649;28;20489;-71
2021/04/17 11:44:13;;;;;;;1.30;1.20;;;12.30;77.40;;;;;;5068622;28;20463;-72
2021/04/17 11:46:40;;;;;;;2.60;1.67;;;12.00;77.60;;;;;;5070480;28;20459;-72
2021/04/17 11:49:07;;;;;;;1.20;1.00;;;11.90;78.60;;;;;;5068906;28;20456;-72
2021/04/17 11:51:34;;;;;;;1.30;1.20;;;11.80;79.30;;;;;;5071730;28;20490;-71
2021/04/17 11:54:00;;;;;;;1.53;1.30;;;11.50;80.80;;;;;;5068485;28;20493;-71
2021/04/17 11:56:28;;;;;;;2.33;1.77;;;11.50;80.40;;;;;;5071463;28;20515;-72
2021/04/17 11:58:55;;;;;;;3.00;1.77;;;11.70;80.00;;;;;;5068924;28;20783;-72
2021/04/17 12:01:22;;;;;;;1.73;1.40;;;11.80;79.10;;;;;;5071458;28;20795;-72
2021/04/17 12:03:49;;;;;;;1.20;1.03;;;11.80;79.50;;;;;;5068509;28;20458;-68
2021/04/17 12:06:16;;;;;;;1.47;1.17;;;12.10;77.70;;;;;;5069269;28;20462;-69
2021/04/17 12:08:43;;;;;;;1.50;1.33;;;12.60;78.10;;;;;;5066857;28;20479;-70
2021/04/17 12:11:10;;;;;;;2.03;1.90;;;13.10;77.20;;;;;;5071103;28;20461;-70
2021/04/17 12:13:37;;;;;;;1.50;1.40;;;13.10;73.40;;;;;;5067923;28;20457;-69
2021/04/17 12:16:05;;;;;;;1.50;1.37;;;13.10;75.00;;;;;;5070104;28;21014;-69
2021/04/17 12:18:32;;;;;;;1.70;1.30;;;12.80;75.00;;;;;;5066347;28;20460;-69
2021/04/17 12:20:59;;;;;;;1.83;1.23;;;12.80;74.50;;;;;;5071213;28;20948;-69
2021/04/17 12:23:26;;;;;;;2.23;1.47;;;12.60;75.50;;;;;;5070549;28;20633;-70
2021/04/17 12:25:52;;;;;;;1.30;1.10;;;12.40;75.20;;;;;;5068630;28;20530;-72
2021/04/17 12:28:19;;;;;;;1.23;1.23;;;12.50;75.00;;;;;;5071165;28;20501;-72
2021/04/17 12:30:46;;;;;;;1.20;1.00;;;12.40;75.60;;;;;;5068136;28;21074;-72
2021/04/17 12:33:13;;;;;;;1.83;1.43;;;12.20;75.60;;;;;;5070670;28;20470;-72
2021/04/17 12:35:42;;;;;;;1.30;1.20;;;12.10;76.60;;;;;;5067499;28;20575;-72
2021/04/17 12:38:10;;;;;;;1.80;1.60;;;11.90;77.10;;;;;;5071051;28;20460;-72
2021/04/17 12:40:40;;;;;;;2.07;1.57;;;12.00;77.00;;;;;;5068014;28;20950;-72
2021/04/17 12:43:08;;;;;;;2.70;1.73;;;12.10;78.20;;;;;;5053424;28;20799;-72
2021/04/17 12:45:36;;;;;;;1.30;1.00;;;11.70;77.30;;;;;;5067201;28;20500;-71
2021/04/17 12:48:03;;;;;;;1.80;1.40;;;11.80;78.10;;;;;;5070914;28;20885;-72
2021/04/17 12:50:34;;;;;;;1.20;1.20;;;11.80;78.00;;;;;;5068286;28;20507;-72
2021/04/17 12:53:02;;;;;;;1.20;1.07;;;11.80;78.20;;;;;;5070596;28;20462;-72
2021/04/17 12:55:29;;;;;;;1.20;1.00;;;12.00;77.90;;;;;;5067943;28;20548;-72
2021/04/17 12:57:55;;;;;;;1.73;1.30;;;11.90;76.60;;;;;;5070831;28;20468;-72
2021/04/17 13:00:23;;;;;;;1.20;1.10;;;12.10;77.60;;;;;;5067930;28;20518;-71
2021/04/17 13:02:50;;;;;;;1.20;1.00;;;12.20;77.10;;;;;;5069449;28;20512;-72
2021/04/17 13:05:16;;;;;;;1.70;1.53;;;12.10;73.70;;;;;;5068178;28;20460;-71